Portada
METAR-TAF:

METAR-TAF

Aeroports :

Horn Island, Austràlia

latitud: 10-35-11S, longitud: 142-07-24E, altitud: 13 m

Observació

L'informe es va fer fa 33 minuts, a les 12:00 UTC
Vent 8 kt del Sud-Est
Temperatura 25°C
Humitat 79%
Pressió 1015 hPa
Visibilitat 10 km o més
Cel cobert a una alçada de 4200 ft

METAR: YHID 251200Z AUTO 14008KT 9999 // OVC042 25/21 Q1015

Hora: 22:33 (12:33 UTC)

Pronòstic

L'informe es va fer fa 1 hora i 20 minuts, a les 11:13 UTC
Pronòstic vàlid del 25 a les 12 UTC al 26 a les 12 UTC
Vent 12 kt del Sud-Est
Visibilitat 10 km o més
Cel ennuvolat a una alçada de 3000 ft

TAF: YHID 251113Z 2512/2612 13012KT 9999 BKN030

Observacions i pronòstics meteorològics de més de 4000 aeroports (METAR i TAF).

Les estacions disponibles són els punts grocs i vermells al mapa.

Posi el ratolí al punt desitjat per veure el nom de l'estació.

Feu clic per veure les observacions i els pronòstics meteorològics.

Per canviar el mapa: feu clic els botons verds amb una creu de color negre per apropar; al botó verd amb un guió per allunyar la imatge; o en les fletxes verdes per a mapes adjacents.


METAR-TAF: